Hidden Valley, PA (15502)

9:06 AM EDT on July 24, 2016 (GMT -0400)
northwest of court house 1 1/2 blocks | | Change Station

Elev 2139 ft 40.01 °N, 79.08 °W | Updated 8 minutes ago

Scattered Clouds
Scattered Clouds
74.8 °F
Feels Like 75 °F
N
0.0
Wind Variable Wind from West

Today
High -- | Low -- °F
--% Chance of Precip.
Yesterday
High -- | Low -- °F
Precip. -- in
Pressure 30.05 in
Visibility 10.0 miles
Clouds Scattered Clouds 5000 ft
Heat Index 75 °F
Dew Point 70 °F
Humidity 84%
Rainfall 0.00 in
Snow Depth Not available.
6:07 AM 8:37 PM
Waning Gibbous, 76% visible
METAR KJST 241254Z AUTO 18003KT 10SM SCT050 23/18 A3010 RMK AO2 SLP175 T02330178
Pressure 30.05 in
Visibility 10.0 miles
Clouds Scattered Clouds 5000 ft
Heat Index 75 °F
Dew Point 70 °F
Humidity 84%
Rainfall 0.00 in
Snow Depth Not available.
6:07 AM 8:37 PM
Waning Gibbous, 76% visible
METAR KJST 241254Z AUTO 18003KT 10SM SCT050 23/18 A3010 RMK AO2 SLP175 T02330178

10-Day Weather Forecast

Almanac

Astronomy

Jul. 24, 2016 Rise Set
Actual Time
Civil Twilight
Nautical Twilight
Astronomical Twilight
Moon
Length of Visible Light
Length of Day
Tomorrow will be .
, % of the Moon is Illuminated

Today's Extremes

State Highs State Lows

Community

WunderPhotos

Upload Photos

1,927,054 photos uploaded!

WunderBlog® & News

Nearby

Air Quality

  Air Quality AQ Index Pollutant
Not available.

Snow Depth

Station Depth Elevation

Earthquake Activity

City Distance Mag. Time & Date
Minimum magnitude displayed is 2.5.

Coastal Water Temperatures

Place Temperature

Stations

Nearby Weather Stations

Station Location Temp. Windchill Dew Point Humidity Wind Precip. Elev Updated Type
                   

Watches & Warnings

There are currently no watches in effect.